首页
METAR-TAF:

METAR-TAF

机场 :

兹瓦尔特诺茨国际机场

葉里溫, 亚美尼亚

纬度: 40-08-50N, 经度: 044-23-45E, 海拔: 865米

当前天气观测

该预报发布于34分钟前的06:30 UTC
风速2节,风向
温度 8°C
湿度 57%
气压 1014 hPa
能見度: 6000
散云层高于4600英尺

METAR: UDYZ 290630Z 17002KT 6000 SCT046 08/M00 Q1014 R09/010070 NOSIG

时间: 11:04 (07:04 UTC)

预报

该预报发布于1小时和59分钟前的05:05 UTC
预报有效从29日的 06点(UTC)到 01日的 06点(UTC)
风速4节,风向多变
能見度: 6000
散云层高于3000英尺
短暂存在
从 29日的 08点(UTC)到 29日的 14点(UTC)
阴天层高于2000英尺
小雨
短暂存在
从 29日的 14点(UTC)到 29日的 24点(UTC)
风速16节,风向多变
能見度: 3500
多云层高于2000英尺, 积雨云.
小阵雨, 轻雾

TAF: UDYZ 290505Z 2906/0106 VRB04KT 6000 SCT030 TEMPO 2908/2914 -RA OVC020 TEMPO 2914/2924 VRB16KT 3500 -SHRA BR BKN020CB

超过4000个机场的气象观测和天气预报(METAR&TAF报告)。

可查询的气象台以黄色和红色小点在地图上表示。

将鼠标移到小点上方,可查看气象台名称。

然后点击查看天气观测和预报。

如需切换地图:点击带黑十字的绿色按钮放大地图;点击带横线的绿色按钮缩小地图;或者点击绿色箭头查看邻近地区的地图。


METAR-TAF: